Time;durP1;ratioP1;P1;durP2;ratioP2;P2;SDS_P1;SDS_P2;PMS_P1;PMS_P2;Temp;Humidity;BMP_temperature;BMP_pressure;BME280_temperature;BME280_humidity;BME280_pressure;Samples;Min_cycle;Max_cycle;Signal;HPM_P1;HPM_P2
2023/04/19 00:00:37;;;;;;;10.35;7.22;;;8.40;99.90;;;;;;4967890;28;20077;-57
2023/04/19 00:03:05;;;;;;;11.00;6.85;;;8.40;99.90;;;;;;4964273;28;20042;-57
2023/04/19 00:05:31;;;;;;;13.38;6.97;;;8.40;99.90;;;;;;4969578;28;20054;-59
2023/04/19 00:07:58;;;;;;;11.77;6.93;;;8.40;99.90;;;;;;4967272;28;20054;-57
2023/04/19 00:10:23;;;;;;;13.63;7.53;;;8.40;99.90;;;;;;4969808;28;20042;-57
2023/04/19 00:12:49;;;;;;;12.10;7.22;;;8.30;99.90;;;;;;4965659;28;20087;-56
2023/04/19 00:15:15;;;;;;;11.18;7.93;;;8.40;99.90;;;;;;4965907;28;20125;-53
2023/04/19 00:17:40;;;;;;;9.73;7.50;;;8.40;99.90;;;;;;4965971;28;20073;-59
2023/04/19 00:20:07;;;;;;;12.18;7.40;;;8.40;99.90;;;;;;4971761;28;20625;-57
2023/04/19 00:22:33;;;;;;;8.50;7.05;;;8.30;99.90;;;;;;4969526;28;20067;-55
2023/04/19 00:24:59;;;;;;;12.52;7.65;;;8.30;99.90;;;;;;4963931;28;20401;-59
2023/04/19 00:27:24;;;;;;;9.85;7.28;;;8.30;99.90;;;;;;4969461;28;20089;-56
2023/04/19 00:29:50;;;;;;;10.63;7.90;;;8.30;99.90;;;;;;4966498;28;20078;-59
2023/04/19 00:32:16;;;;;;;10.75;7.78;;;8.30;99.90;;;;;;4966967;28;20034;-58
2023/04/19 00:34:41;;;;;;;13.68;8.00;;;8.30;99.90;;;;;;4972861;28;20054;-57
2023/04/19 00:37:08;;;;;;;11.57;7.88;;;8.30;99.90;;;;;;4969439;28;20057;-57
2023/04/19 00:39:34;;;;;;;10.90;7.88;;;8.20;99.90;;;;;;4959167;28;20042;-57
2023/04/19 00:42:00;;;;;;;11.98;8.27;;;8.20;99.90;;;;;;4966461;28;20404;-59
2023/04/19 00:44:26;;;;;;;12.15;8.15;;;8.20;99.90;;;;;;4967430;28;20063;-58
2023/04/19 00:46:52;;;;;;;10.32;7.53;;;8.20;99.90;;;;;;4966634;28;20069;-57
2023/04/19 00:49:21;;;;;;;11.48;7.65;;;8.20;99.90;;;;;;4971865;28;20047;-59
2023/04/19 00:51:49;;;;;;;11.88;7.90;;;8.10;99.90;;;;;;4974561;28;20914;-59
2023/04/19 00:54:15;;;;;;;11.77;7.55;;;8.10;99.90;;;;;;4971080;28;20524;-58
2023/04/19 00:56:42;;;;;;;11.82;8.35;;;8.10;99.90;;;;;;4965553;28;20054;-55
2023/04/19 00:59:08;;;;;;;11.15;8.48;;;8.10;99.90;;;;;;4972146;28;20042;-58
2023/04/19 01:01:34;;;;;;;13.25;8.95;;;8.00;99.90;;;;;;4975492;28;20046;-57
2023/04/19 01:04:01;;;;;;;13.10;8.48;;;7.90;99.90;;;;;;4975378;28;20393;-59
2023/04/19 01:06:28;;;;;;;12.05;8.65;;;7.90;99.90;;;;;;4961976;28;20132;-56
2023/04/19 01:08:55;;;;;;;14.10;9.15;;;7.80;99.90;;;;;;4954594;28;20101;-59
2023/04/19 01:11:23;;;;;;;16.75;9.25;;;7.70;99.90;;;;;;4954193;28;20081;-55
2023/04/19 01:13:48;;;;;;;14.60;9.75;;;7.70;99.90;;;;;;4970557;28;20053;-56
2023/04/19 01:16:14;;;;;;;13.40;9.77;;;7.60;99.90;;;;;;4973334;28;20035;-59
2023/04/19 01:18:40;;;;;;;14.35;9.73;;;7.60;99.90;;;;;;4964126;28;20097;-58
2023/04/19 01:21:11;;;;;;;13.63;9.82;;;7.60;99.90;;;;;;4965031;28;20039;-58
2023/04/19 01:23:38;;;;;;;13.70;9.50;;;7.50;99.90;;;;;;4970520;28;20038;-57
2023/04/19 01:26:04;;;;;;;13.95;9.68;;;7.40;99.90;;;;;;4971737;28;20057;-58
2023/04/19 01:28:30;;;;;;;15.00;10.55;;;7.40;99.90;;;;;;4967609;28;20385;-58
2023/04/19 01:30:56;;;;;;;12.18;9.70;;;7.30;99.90;;;;;;4950940;28;20103;-58
2023/04/19 01:33:22;;;;;;;13.98;10.15;;;7.30;99.90;;;;;;4969170;28;20034;-58
2023/04/19 01:35:48;;;;;;;14.65;10.38;;;7.30;99.90;;;;;;4971586;28;20126;-56
2023/04/19 01:38:14;;;;;;;14.70;10.85;;;7.20;99.90;;;;;;4974835;28;20519;-56
2023/04/19 01:40:41;;;;;;;14.10;11.10;;;7.20;99.90;;;;;;4970542;28;20120;-57
2023/04/19 01:43:07;;;;;;;17.17;11.65;;;7.10;99.90;;;;;;4969639;28;20046;-59
2023/04/19 01:45:35;;;;;;;15.43;11.52;;;7.10;99.90;;;;;;4937029;28;20081;-55
2023/04/19 01:48:02;;;;;;;15.07;11.10;;;7.10;99.90;;;;;;4967421;28;20034;-59
2023/04/19 01:50:27;;;;;;;20.23;11.55;;;7.10;99.90;;;;;;4970780;28;20481;-56
2023/04/19 01:52:53;;;;;;;16.80;11.57;;;7.00;99.90;;;;;;4971409;28;20042;-58
2023/04/19 01:55:19;;;;;;;14.90;11.27;;;7.00;99.90;;;;;;4963806;28;20050;-56
2023/04/19 01:57:45;;;;;;;17.05;11.30;;;7.00;99.90;;;;;;4962393;28;20035;-59
2023/04/19 02:00:11;;;;;;;16.45;11.18;;;7.00;99.90;;;;;;4963637;28;20043;-59
2023/04/19 02:02:37;;;;;;;14.70;11.18;;;6.90;99.90;;;;;;4967843;28;20520;-56
2023/04/19 02:05:05;;;;;;;16.10;11.20;;;6.90;99.90;;;;;;4969255;28;20401;-57
2023/04/19 02:07:31;;;;;;;15.43;10.80;;;6.90;99.90;;;;;;4967818;28;20047;-55
2023/04/19 02:09:58;;;;;;;18.38;11.05;;;6.80;99.90;;;;;;4967653;28;20120;-59
2023/04/19 02:12:27;;;;;;;14.65;11.05;;;6.80;99.90;;;;;;4966662;28;20047;-57
2023/04/19 02:14:56;;;;;;;15.38;10.77;;;6.80;99.90;;;;;;4964627;28;20081;-55
2023/04/19 02:17:22;;;;;;;14.13;10.75;;;6.70;99.90;;;;;;4964412;28;20125;-56
2023/04/19 02:19:48;;;;;;;19.30;10.65;;;6.80;99.90;;;;;;4967888;28;20094;-57
2023/04/19 02:22:14;;;;;;;17.63;10.85;;;6.70;99.90;;;;;;4965787;28;20136;-56
2023/04/19 02:24:39;;;;;;;14.57;10.23;;;6.70;99.90;;;;;;4964385;28;20087;-57
2023/04/19 02:27:05;;;;;;;14.95;10.43;;;6.70;99.90;;;;;;4952378;28;20042;-58
2023/04/19 02:29:32;;;;;;;13.70;10.25;;;6.70;99.90;;;;;;4962887;28;20051;-58
2023/04/19 02:31:58;;;;;;;14.75;9.38;;;6.60;99.90;;;;;;4963668;28;20516;-58
2023/04/19 02:34:24;;;;;;;13.63;8.93;;;6.60;99.90;;;;;;4934660;28;20416;-58
2023/04/19 02:36:50;;;;;;;10.80;8.32;;;6.60;99.90;;;;;;4953701;28;20104;-52
2023/04/19 02:39:16;;;;;;;10.90;7.30;;;6.60;99.90;;;;;;4961412;28;20055;-57
2023/04/19 02:41:42;;;;;;;13.23;7.50;;;6.60;99.90;;;;;;4943823;28;20149;-58
2023/04/19 02:44:07;;;;;;;10.02;6.47;;;6.60;99.90;;;;;;4964437;28;20079;-56
2023/04/19 02:46:33;;;;;;;12.60;6.63;;;6.70;99.90;;;;;;4943797;28;20051;-56
2023/04/19 02:49:02;;;;;;;12.45;6.63;;;6.70;99.90;;;;;;4964756;28;20123;-55
2023/04/19 02:51:28;;;;;;;10.13;6.57;;;6.70;99.90;;;;;;4964593;28;20535;-58
2023/04/19 02:53:54;;;;;;;10.15;6.30;;;6.70;99.90;;;;;;4961988;28;20038;-57
2023/04/19 02:56:19;;;;;;;9.77;6.43;;;6.60;99.90;;;;;;4958144;28;20058;-58
2023/04/19 02:58:45;;;;;;;9.15;6.28;;;6.70;99.90;;;;;;4963548;28;20611;-53
2023/04/19 03:01:11;;;;;;;11.38;6.93;;;6.70;99.90;;;;;;4957457;28;20039;-57
2023/04/19 03:03:37;;;;;;;8.70;5.85;;;6.60;99.90;;;;;;4961065;28;20039;-58
2023/04/19 03:06:03;;;;;;;9.90;6.60;;;6.60;99.90;;;;;;4965189;28;20404;-58
2023/04/19 03:08:28;;;;;;;11.13;7.35;;;6.50;99.90;;;;;;4966401;28;20509;-58
2023/04/19 03:10:54;;;;;;;12.27;7.95;;;6.50;99.90;;;;;;4965417;28;20153;-56
2023/04/19 03:13:20;;;;;;;12.88;8.20;;;6.40;99.90;;;;;;4946735;28;20512;-57
2023/04/19 03:15:46;;;;;;;12.27;8.07;;;6.30;99.90;;;;;;4962751;28;20053;-54
2023/04/19 03:18:12;;;;;;;11.45;8.43;;;6.20;99.90;;;;;;4964159;28;20069;-56
2023/04/19 03:20:38;;;;;;;10.77;8.32;;;6.20;99.90;;;;;;4967581;28;20034;-58
2023/04/19 03:23:04;;;;;;;15.32;8.80;;;6.10;99.90;;;;;;4972277;28;20081;-57
2023/04/19 03:25:30;;;;;;;11.02;8.35;;;6.00;99.90;;;;;;4962229;28;20043;-57
2023/04/19 03:27:56;;;;;;;10.88;8.50;;;6.00;99.90;;;;;;4959608;28;20773;-58
2023/04/19 03:30:22;;;;;;;13.75;8.57;;;5.90;99.90;;;;;;4963306;28;20413;-58
2023/04/19 03:32:47;;;;;;;13.07;8.35;;;5.90;99.90;;;;;;4966936;28;20081;-55
2023/04/19 03:35:13;;;;;;;13.32;7.97;;;5.80;99.90;;;;;;4968577;28;20085;-55
2023/04/19 03:37:39;;;;;;;11.43;7.97;;;5.80;99.90;;;;;;4965889;28;20053;-57
2023/04/19 03:40:05;;;;;;;13.30;8.38;;;5.80;99.90;;;;;;4964921;28;20042;-57
2023/04/19 03:42:31;;;;;;;15.80;8.38;;;5.70;99.90;;;;;;4962201;28;20470;-56
2023/04/19 03:44:57;;;;;;;11.95;8.25;;;5.60;99.90;;;;;;4963009;28;20046;-58
2023/04/19 03:47:23;;;;;;;12.20;8.43;;;5.70;99.90;;;;;;4966456;28;20061;-58
2023/04/19 03:49:48;;;;;;;11.98;8.68;;;5.60;99.90;;;;;;4946298;28;20527;-56
2023/04/19 03:52:14;;;;;;;12.30;8.75;;;5.60;99.90;;;;;;4949396;28;20065;-57
2023/04/19 03:54:40;;;;;;;12.60;9.07;;;5.50;99.90;;;;;;4953260;28;20059;-58
2023/04/19 03:57:05;;;;;;;14.00;9.25;;;5.50;99.90;;;;;;4963295;28;20178;-57
2023/04/19 03:59:31;;;;;;;14.02;9.27;;;5.40;99.90;;;;;;4937655;28;20754;-56
2023/04/19 04:01:57;;;;;;;13.55;10.00;;;5.40;99.90;;;;;;4964215;28;20457;-58
2023/04/19 04:04:22;;;;;;;14.77;9.85;;;5.30;99.90;;;;;;4957676;28;20046;-57
2023/04/19 04:06:48;;;;;;;16.48;10.23;;;5.30;99.90;;;;;;4966695;28;20049;-56
2023/04/19 04:09:14;;;;;;;13.80;9.73;;;5.20;99.90;;;;;;4962273;28;20089;-55
2023/04/19 04:11:40;;;;;;;19.10;10.38;;;5.10;99.90;;;;;;4964087;28;20149;-56
2023/04/19 04:14:06;;;;;;;13.70;10.27;;;5.10;99.90;;;;;;4945817;28;20111;-56
2023/04/19 04:16:31;;;;;;;14.63;9.45;;;5.10;99.90;;;;;;4949644;28;20058;-57
2023/04/19 04:18:57;;;;;;;12.68;9.35;;;5.00;99.90;;;;;;4958355;28;20039;-57
2023/04/19 04:21:23;;;;;;;15.80;9.65;;;5.00;99.90;;;;;;4959620;28;20046;-57
2023/04/19 04:23:50;;;;;;;12.93;9.45;;;5.00;99.90;;;;;;4941706;28;20121;-54
2023/04/19 04:26:18;;;;;;;13.85;9.57;;;4.90;99.90;;;;;;4960828;28;20472;-56
2023/04/19 04:28:44;;;;;;;14.75;9.48;;;4.90;99.90;;;;;;4959660;28;20053;-54
2023/04/19 04:31:11;;;;;;;13.27;9.35;;;4.90;99.90;;;;;;4963338;28;20051;-57
2023/04/19 04:33:37;;;;;;;16.40;9.32;;;4.80;99.90;;;;;;4964621;28;20081;-57
2023/04/19 04:36:04;;;;;;;16.63;9.48;;;4.80;99.90;;;;;;4959812;28;20043;-57
2023/04/19 04:38:30;;;;;;;16.25;9.45;;;4.80;99.90;;;;;;4964245;28;20054;-56
2023/04/19 04:40:55;;;;;;;13.43;8.38;;;4.70;99.90;;;;;;4958969;28;20469;-56
2023/04/19 04:43:23;;;;;;;12.18;8.90;;;4.70;99.90;;;;;;4959756;28;20498;-54
2023/04/19 04:45:49;;;;;;;13.23;8.73;;;4.70;99.90;;;;;;4966526;28;20382;-54
2023/04/19 04:48:15;;;;;;;16.33;9.50;;;4.70;99.90;;;;;;4969155;28;20054;-58
2023/04/19 04:50:41;;;;;;;12.93;8.85;;;4.70;99.90;;;;;;4965941;28;20384;-55
2023/04/19 04:53:07;;;;;;;12.60;9.07;;;4.70;99.90;;;;;;4971671;28;20414;-55
2023/04/19 04:55:33;;;;;;;13.65;8.90;;;4.70;99.90;;;;;;4966645;28;20070;-56
2023/04/19 04:57:59;;;;;;;11.48;7.85;;;4.60;99.90;;;;;;4965612;28;20373;-56
2023/04/19 05:00:25;;;;;;;13.73;8.70;;;4.60;99.90;;;;;;4965682;28;20034;-56
2023/04/19 05:02:51;;;;;;;10.00;7.43;;;4.60;99.90;;;;;;4965799;28;21388;-58
2023/04/19 05:05:17;;;;;;;13.02;7.93;;;4.70;99.90;;;;;;4965306;28;20077;-57
2023/04/19 05:07:42;;;;;;;14.57;8.27;;;4.70;99.90;;;;;;4971046;28;20050;-58
2023/04/19 05:10:09;;;;;;;12.30;7.32;;;4.70;99.90;;;;;;4963820;28;20671;-57
2023/04/19 05:12:36;;;;;;;10.93;7.43;;;4.70;99.90;;;;;;4969001;28;20046;-55
2023/04/19 05:15:02;;;;;;;12.38;6.88;;;4.70;99.90;;;;;;4967070;28;20045;-58
2023/04/19 05:17:28;;;;;;;11.77;7.63;;;4.70;99.90;;;;;;4970674;28;20241;-57
2023/04/19 05:19:54;;;;;;;11.27;7.20;;;4.80;99.90;;;;;;4969311;28;20059;-58
2023/04/19 05:22:19;;;;;;;10.15;6.93;;;4.80;99.90;;;;;;4966709;28;20568;-58
2023/04/19 05:24:46;;;;;;;10.80;6.65;;;4.80;99.90;;;;;;4965320;28;20042;-59
2023/04/19 05:27:11;;;;;;;8.77;6.13;;;4.90;99.90;;;;;;4966120;28;20058;-57
2023/04/19 05:29:37;;;;;;;9.30;5.90;;;4.90;99.90;;;;;;4965207;28;20060;-58
2023/04/19 05:32:03;;;;;;;10.65;5.60;;;5.00;99.90;;;;;;4967628;28;20039;-56
2023/04/19 05:34:29;;;;;;;9.93;5.57;;;5.10;99.90;;;;;;4939755;28;20229;-58
2023/04/19 05:36:55;;;;;;;9.63;5.47;;;5.10;99.90;;;;;;4967238;28;20399;-57
2023/04/19 05:39:20;;;;;;;9.05;5.70;;;5.20;99.90;;;;;;4961259;28;20045;-55
2023/04/19 05:41:46;;;;;;;10.65;6.30;;;5.30;99.90;;;;;;4967383;28;20052;-57
2023/04/19 05:44:12;;;;;;;12.15;6.68;;;5.30;99.90;;;;;;4968133;28;20046;-57
2023/04/19 05:46:38;;;;;;;12.63;6.68;;;5.30;99.90;;;;;;4970452;28;20038;-59
2023/04/19 05:49:03;;;;;;;10.48;6.55;;;5.30;99.90;;;;;;4961930;28;20150;-58
2023/04/19 05:51:30;;;;;;;11.93;6.80;;;5.30;99.90;;;;;;4963449;28;20137;-57
2023/04/19 05:53:56;;;;;;;11.65;7.07;;;5.30;99.90;;;;;;4965586;28;20046;-55
2023/04/19 05:56:22;;;;;;;10.18;6.63;;;5.30;99.90;;;;;;4962709;28;21248;-56
2023/04/19 05:58:47;;;;;;;10.30;6.53;;;5.30;99.90;;;;;;4950943;28;20126;-57
2023/04/19 06:01:13;;;;;;;9.60;6.25;;;5.30;99.90;;;;;;4948754;28;20042;-57
2023/04/19 06:03:39;;;;;;;9.48;6.40;;;5.40;99.90;;;;;;4959135;28;20129;-57
2023/04/19 06:06:05;;;;;;;10.23;6.07;;;5.40;99.90;;;;;;4952112;28;20744;-57
2023/04/19 06:08:30;;;;;;;8.02;5.90;;;5.50;99.90;;;;;;4951589;28;20396;-54
2023/04/19 06:10:56;;;;;;;7.93;5.95;;;5.50;99.90;;;;;;4958480;28;20107;-57
2023/04/19 06:13:22;;;;;;;7.57;5.60;;;5.50;99.90;;;;;;4958773;28;20061;-58
2023/04/19 06:15:48;;;;;;;14.80;6.18;;;5.60;99.90;;;;;;4956191;28;20408;-59
2023/04/19 06:18:14;;;;;;;8.23;6.10;;;5.70;99.90;;;;;;4963380;28;20716;-58
2023/04/19 06:20:40;;;;;;;7.30;5.50;;;5.80;99.90;;;;;;4968703;28;20121;-58
2023/04/19 06:23:06;;;;;;;9.02;5.40;;;5.90;99.90;;;;;;4957032;28;20039;-57
2023/04/19 06:25:32;;;;;;;9.57;5.60;;;5.90;99.90;;;;;;4951056;28;20074;-58
2023/04/19 06:27:58;;;;;;;6.78;5.18;;;6.00;99.90;;;;;;4962588;28;20216;-57
2023/04/19 06:30:24;;;;;;;8.05;5.22;;;6.20;99.90;;;;;;4971819;28;20042;-53
2023/04/19 06:32:50;;;;;;;6.75;4.97;;;6.20;99.90;;;;;;4969109;28;20046;-58
2023/04/19 06:35:16;;;;;;;10.25;5.43;;;6.30;99.90;;;;;;4971401;28;20054;-59
2023/04/19 06:37:41;;;;;;;8.13;5.22;;;6.40;99.90;;;;;;4967549;28;20035;-58
2023/04/19 06:40:08;;;;;;;9.57;5.60;;;6.50;99.90;;;;;;4969678;28;20055;-55
2023/04/19 06:42:37;;;;;;;8.18;5.13;;;6.60;99.90;;;;;;4967197;28;20121;-56
2023/04/19 06:45:03;;;;;;;9.15;5.22;;;6.60;99.90;;;;;;4966107;28;20038;-56
2023/04/19 06:47:30;;;;;;;7.75;4.60;;;6.70;99.90;;;;;;4969884;28;20077;-56
2023/04/19 06:49:56;;;;;;;6.07;4.75;;;6.90;99.90;;;;;;4972875;28;20038;-56
2023/04/19 06:52:22;;;;;;;9.02;4.93;;;6.90;99.90;;;;;;4969598;28;20050;-58
2023/04/19 06:54:49;;;;;;;7.15;4.38;;;7.00;99.90;;;;;;4969166;28;20055;-58
2023/04/19 06:57:18;;;;;;;8.32;4.45;;;7.20;99.90;;;;;;4969642;28;20051;-58
2023/04/19 06:59:44;;;;;;;6.57;4.18;;;7.30;99.90;;;;;;4971330;28;20035;-58
2023/04/19 07:02:09;;;;;;;6.20;3.75;;;7.40;99.90;;;;;;4948841;28;20141;-59
2023/04/19 07:04:36;;;;;;;4.25;2.63;;;7.50;99.90;;;;;;4968038;28;20074;-56
2023/04/19 07:07:02;;;;;;;4.65;3.40;;;7.60;99.90;;;;;;4967582;28;20508;-57
2023/04/19 07:09:28;;;;;;;6.63;3.80;;;7.80;99.90;;;;;;4970513;28;20049;-57
2023/04/19 07:11:53;;;;;;;6.45;3.58;;;7.90;99.90;;;;;;4966824;28;20046;-58
2023/04/19 07:14:19;;;;;;;5.93;3.55;;;8.00;99.90;;;;;;4972020;28;20058;-58
2023/04/19 07:16:46;;;;;;;7.05;3.92;;;8.10;99.90;;;;;;4970436;28;20046;-56
2023/04/19 07:19:12;;;;;;;6.20;3.83;;;8.10;99.90;;;;;;4969179;28;20441;-58
2023/04/19 07:21:38;;;;;;;6.85;3.63;;;8.20;99.90;;;;;;4974015;28;20145;-57
2023/04/19 07:24:07;;;;;;;5.25;3.60;;;8.30;99.90;;;;;;4971115;28;20501;-57
2023/04/19 07:26:33;;;;;;;3.53;3.00;;;8.40;99.90;;;;;;4969232;28;20495;-58
2023/04/19 07:29:00;;;;;;;6.47;3.30;;;8.50;99.90;;;;;;4969527;28;20050;-59
2023/04/19 07:31:26;;;;;;;6.90;2.88;;;8.60;99.90;;;;;;4971247;28;20034;-57
2023/04/19 07:33:53;;;;;;;7.70;3.10;;;8.70;99.90;;;;;;4952195;28;20129;-57
2023/04/19 07:36:20;;;;;;;4.85;2.90;;;8.80;99.90;;;;;;4965827;28;20049;-56
2023/04/19 07:38:45;;;;;;;2.47;2.25;;;9.00;99.90;;;;;;4966841;28;20057;-56
2023/04/19 07:41:11;;;;;;;3.70;2.85;;;9.10;99.90;;;;;;4964778;28;20394;-57
2023/04/19 07:43:40;;;;;;;3.13;1.98;;;9.20;99.70;;;;;;4967439;28;20050;-58
2023/04/19 07:46:14;;;;;;;3.25;2.75;;;9.30;99.10;;;;;;4969558;28;20050;-57
2023/04/19 07:48:40;;;;;;;4.32;2.60;;;9.40;98.50;;;;;;4949839;28;20057;-53
2023/04/19 07:51:15;;;;;;;6.78;2.78;;;9.60;98.50;;;;;;4969860;28;20449;-57
2023/04/19 07:53:42;;;;;;;5.82;2.70;;;9.70;98.20;;;;;;4967136;28;20093;-57
2023/04/19 07:56:09;;;;;;;4.95;2.53;;;9.70;97.90;;;;;;4965601;28;20450;-56
2023/04/19 07:58:35;;;;;;;5.05;2.63;;;9.90;97.90;;;;;;4950979;28;20090;-55
2023/04/19 08:01:01;;;;;;;5.68;2.65;;;9.90;97.50;;;;;;4971219;28;20042;-57
2023/04/19 08:03:27;;;;;;;6.10;2.65;;;10.00;97.20;;;;;;4974673;28;20472;-55
2023/04/19 08:05:52;;;;;;;3.22;2.50;;;10.10;97.10;;;;;;4974572;28;20064;-56
2023/04/19 08:08:18;;;;;;;6.10;2.80;;;10.20;96.50;;;;;;4952669;28;20042;-55
2023/04/19 08:10:44;;;;;;;6.43;2.60;;;10.30;95.30;;;;;;4973248;28;20137;-55
2023/04/19 08:13:10;;;;;;;3.38;2.15;;;10.40;95.50;;;;;;4973809;28;20112;-58
2023/04/19 08:15:36;;;;;;;9.48;2.50;;;10.50;95.30;;;;;;4971097;28;20173;-58
2023/04/19 08:18:06;;;;;;;5.45;2.45;;;10.50;95.00;;;;;;4973725;28;20044;-57
2023/04/19 08:20:32;;;;;;;3.80;2.40;;;10.60;94.20;;;;;;4975366;28;20097;-57
2023/04/19 08:22:59;;;;;;;2.78;2.30;;;10.70;93.80;;;;;;4974905;28;20043;-59
2023/04/19 08:25:27;;;;;;;5.03;2.10;;;10.70;93.00;;;;;;4971515;28;20109;-57
2023/04/19 08:27:54;;;;;;;3.65;2.10;;;10.80;92.80;;;;;;4967539;28;20121;-58
2023/04/19 08:30:20;;;;;;;3.53;2.15;;;10.90;92.40;;;;;;4959476;28;20398;-56
2023/04/19 08:32:45;;;;;;;4.25;2.70;;;10.90;91.50;;;;;;4974718;28;20302;-58
2023/04/19 08:35:12;;;;;;;4.40;2.40;;;11.00;91.50;;;;;;4973452;28;20070;-56
2023/04/19 08:37:38;;;;;;;5.15;1.90;;;11.10;91.70;;;;;;4972705;28;20046;-59
2023/04/19 08:40:04;;;;;;;4.53;2.30;;;11.20;92.00;;;;;;4968279;28;20947;-58
2023/04/19 08:42:32;;;;;;;6.47;2.28;;;11.30;91.20;;;;;;4963336;28;20043;-57
2023/04/19 08:45:01;;;;;;;4.05;2.00;;;11.40;89.60;;;;;;4972508;28;20053;-56
2023/04/19 08:47:28;;;;;;;3.13;2.05;;;11.40;85.50;;;;;;4973334;28;20101;-56
2023/04/19 08:49:57;;;;;;;3.28;2.20;;;11.40;83.50;;;;;;4971472;28;20043;-58
2023/04/19 08:52:24;;;;;;;4.32;2.30;;;11.40;82.80;;;;;;4971648;28;20531;-59
2023/04/19 08:54:51;;;;;;;9.32;2.22;;;11.40;81.40;;;;;;4970733;28;20124;-58
2023/04/19 08:57:17;;;;;;;3.90;2.05;;;11.50;81.30;;;;;;4973208;28;20058;-59
2023/04/19 08:59:44;;;;;;;4.70;1.95;;;11.60;82.10;;;;;;4955951;28;24501;-56
2023/04/19 09:02:10;;;;;;;2.38;1.92;;;11.70;83.60;;;;;;4970179;28;20043;-57
2023/04/19 09:04:35;;;;;;;2.13;1.85;;;11.80;82.40;;;;;;4954705;28;20108;-55
2023/04/19 09:07:01;;;;;;;6.93;2.28;;;12.00;82.70;;;;;;4970543;28;20038;-57
2023/04/19 09:09:29;;;;;;;4.70;2.35;;;12.10;81.50;;;;;;4972845;28;20532;-57
2023/04/19 09:11:56;;;;;;;4.00;2.17;;;12.10;81.20;;;;;;4971290;28;20137;-58
2023/04/19 09:14:24;;;;;;;3.25;2.17;;;12.20;81.00;;;;;;4970114;28;20038;-57
2023/04/19 09:16:51;;;;;;;2.60;2.17;;;12.30;80.20;;;;;;4972337;28;20043;-57
2023/04/19 09:19:17;;;;;;;2.83;1.90;;;12.40;80.20;;;;;;4950981;28;20050;-55
2023/04/19 09:21:43;;;;;;;2.33;1.90;;;12.50;79.30;;;;;;4964649;28;20121;-58
2023/04/19 09:24:09;;;;;;;3.00;1.92;;;12.60;76.70;;;;;;4971490;28;20035;-58
2023/04/19 09:26:35;;;;;;;4.13;2.10;;;12.60;75.80;;;;;;4962888;28;20046;-56
2023/04/19 09:29:05;;;;;;;2.70;1.80;;;12.70;75.10;;;;;;4975155;28;20444;-56
2023/04/19 09:31:32;;;;;;;3.70;2.15;;;12.80;75.20;;;;;;4967900;28;20050;-57
2023/04/19 09:34:14;;;;;;;4.00;1.83;;;12.90;74.70;;;;;;4968987;28;20042;-59
2023/04/19 09:36:41;;;;;;;2.17;1.70;;;12.90;74.00;;;;;;4970317;28;20043;-59
2023/04/19 09:39:07;;;;;;;2.53;1.80;;;13.00;72.10;;;;;;4973213;28;20053;-56
2023/04/19 09:41:33;;;;;;;7.50;1.90;;;13.10;72.20;;;;;;4934231;28;20077;-58
2023/04/19 09:44:10;;;;;;;4.45;1.73;;;13.20;70.50;;;;;;4968834;28;20034;-59
2023/04/19 09:46:36;;;;;;;3.92;1.70;;;13.20;68.90;;;;;;4952465;28;20051;-59
2023/04/19 09:49:15;;;;;;;5.60;1.77;;;13.30;69.70;;;;;;4965649;28;20051;-57
2023/04/19 09:51:44;;;;;;;5.30;1.50;;;13.30;70.20;;;;;;4970154;28;20077;-56
2023/04/19 09:54:11;;;;;;;3.78;1.58;;;13.40;65.80;;;;;;4968076;28;20042;-57
2023/04/19 09:56:37;;;;;;;3.25;1.80;;;13.40;63.80;;;;;;4965822;28;20057;-55
2023/04/19 09:59:04;;;;;;;5.13;1.75;;;13.40;63.10;;;;;;4947274;28;20050;-58
2023/04/19 10:01:43;;;;;;;1.90;1.65;;;13.40;64.00;;;;;;4968334;28;20046;-58
2023/04/19 10:04:20;;;;;;;4.03;1.40;;;13.50;65.20;;;;;;4966866;28;20039;-59
2023/04/19 10:06:50;;;;;;;1.67;1.40;;;13.60;66.10;;;;;;4967168;28;20049;-56
2023/04/19 10:09:21;;;;;;;4.40;1.27;;;13.70;65.10;;;;;;4968195;28;20134;-58
2023/04/19 10:11:51;;;;;;;2.63;1.23;;;13.80;64.00;;;;;;4967794;28;20060;-58
2023/04/19 10:14:21;;;;;;;1.70;1.40;;;13.80;63.70;;;;;;4970522;28;20276;-57
2023/04/19 10:16:48;;;;;;;2.53;1.42;;;13.90;63.50;;;;;;4950783;28;20039;-58
2023/04/19 10:19:19;;;;;;;2.58;1.48;;;14.00;63.90;;;;;;4964888;28;20090;-57
2023/04/19 10:21:47;;;;;;;5.80;1.40;;;14.10;64.00;;;;;;4947056;28;20058;-58
2023/04/19 10:24:14;;;;;;;2.42;1.25;;;14.10;64.80;;;;;;4947946;28;20051;-58
2023/04/19 10:27:02;;;;;;;2.35;1.30;;;14.20;63.80;;;;;;4962522;28;20128;-58
2023/04/19 10:29:56;;;;;;;2.80;1.30;;;14.20;63.40;;;;;;4966101;28;20051;-59
2023/04/19 10:32:23;;;;;;;2.40;1.10;;;14.30;63.00;;;;;;4966323;28;20129;-58
2023/04/19 10:34:54;;;;;;;6.38;1.50;;;14.30;62.90;;;;;;4966010;28;20132;-57
2023/04/19 10:37:25;;;;;;;5.00;1.60;;;14.50;63.50;;;;;;4966843;28;20042;-57
2023/04/19 10:39:51;;;;;;;4.57;1.52;;;14.50;62.00;;;;;;4965873;28;20053;-56
2023/04/19 10:42:17;;;;;;;3.35;1.60;;;14.50;61.20;;;;;;4969990;28;20120;-58
2023/04/19 10:45:21;;;;;;;1.75;1.40;;;14.50;62.40;;;;;;4968122;28;20468;-59
2023/04/19 10:47:46;;;;;;;2.55;1.48;;;14.60;61.70;;;;;;4955257;28;20042;-57
2023/04/19 10:50:16;;;;;;;3.25;1.55;;;14.70;61.30;;;;;;4964206;28;20440;-58
2023/04/19 10:52:42;;;;;;;1.80;1.38;;;14.60;60.90;;;;;;4965057;28;24371;-58
2023/04/19 10:55:08;;;;;;;2.55;1.50;;;14.70;61.80;;;;;;4952835;28;20105;-58
2023/04/19 10:58:05;;;;;;;4.03;1.50;;;14.70;61.20;;;;;;4971957;28;20041;-59
2023/04/19 11:00:32;;;;;;;3.00;1.40;;;14.70;60.30;;;;;;4974030;28;20078;-58
2023/04/19 11:03:40;;;;;;;1.80;1.45;;;14.70;60.30;;;;;;4955695;28;20046;-59
2023/04/19 11:06:17;;;;;;;2.15;1.50;;;14.80;61.00;;;;;;4948284;28;20051;-58
2023/04/19 11:08:44;;;;;;;3.08;1.55;;;14.90;60.80;;;;;;4972084;28;20389;-58
2023/04/19 11:11:10;;;;;;;2.45;1.38;;;15.00;61.30;;;;;;4960872;28;20050;-59
2023/04/19 11:13:36;;;;;;;2.28;1.33;;;15.10;62.40;;;;;;4963072;28;20043;-56
2023/04/19 11:16:11;;;;;;;2.55;1.60;;;15.30;62.60;;;;;;4970817;28;20516;-57
2023/04/19 11:18:36;;;;;;;2.60;1.50;;;15.30;60.60;;;;;;4968699;28;20055;-57
2023/04/19 11:21:02;;;;;;;5.80;1.60;;;15.20;60.70;;;;;;4971899;28;20043;-58
2023/04/19 11:23:28;;;;;;;1.95;1.55;;;15.30;61.30;;;;;;4969924;28;20046;-58
2023/04/19 11:25:54;;;;;;;2.95;1.90;;;15.30;61.10;;;;;;4970960;28;20042;-58
2023/04/19 11:28:23;;;;;;;4.15;1.77;;;15.30;60.50;;;;;;4971094;28;20465;-58
2023/04/19 11:30:49;;;;;;;1.80;1.50;;;15.20;59.90;;;;;;4975597;28;20064;-57
2023/04/19 11:33:23;;;;;;;2.55;1.83;;;15.30;59.20;;;;;;4972043;28;20058;-55
2023/04/19 11:35:49;;;;;;;3.95;1.60;;;15.30;59.00;;;;;;4962268;28;20046;-56
2023/04/19 11:38:15;;;;;;;8.82;1.83;;;15.30;59.30;;;;;;4968938;28;20552;-56
2023/04/19 11:40:41;;;;;;;3.70;1.73;;;15.30;59.60;;;;;;4951228;28;20039;-55
2023/04/19 11:43:06;;;;;;;2.97;1.55;;;15.30;59.70;;;;;;4947013;28;20509;-57
2023/04/19 11:45:35;;;;;;;3.75;1.77;;;15.40;60.10;;;;;;4967697;28;20047;-56
2023/04/19 11:48:03;;;;;;;2.80;1.70;;;15.50;59.80;;;;;;4962058;28;20137;-58
2023/04/19 11:50:36;;;;;;;2.65;1.90;;;15.60;60.10;;;;;;4964633;28;20043;-56
2023/04/19 11:53:30;;;;;;;5.63;1.80;;;15.60;60.60;;;;;;4966043;28;20441;-58
2023/04/19 11:56:06;;;;;;;3.25;2.30;;;15.60;60.00;;;;;;4957759;28;20104;-57
2023/04/19 11:58:47;;;;;;;2.03;1.73;;;15.70;59.80;;;;;;4957870;28;20057;-56
2023/04/19 12:01:18;;;;;;;3.35;2.05;;;15.80;60.20;;;;;;4956140;28;20523;-57
2023/04/19 12:03:50;;;;;;;3.05;2.00;;;15.80;59.20;;;;;;4959858;28;20110;-56
2023/04/19 12:06:21;;;;;;;6.97;2.30;;;15.80;59.40;;;;;;4961955;28;20456;-57
2023/04/19 12:08:48;;;;;;;4.15;2.47;;;15.70;59.00;;;;;;4941535;28;20046;-55
2023/04/19 12:11:17;;;;;;;4.90;2.30;;;15.80;60.50;;;;;;4963531;28;20050;-58
2023/04/19 12:13:43;;;;;;;7.90;2.80;;;15.90;61.00;;;;;;4967221;28;20486;-59
2023/04/19 12:16:10;;;;;;;6.22;2.20;;;16.00;61.20;;;;;;4964168;28;20077;-58
2023/04/19 12:18:47;;;;;;;3.40;2.60;;;16.10;60.80;;;;;;4967143;28;20039;-57
2023/04/19 12:21:27;;;;;;;6.07;2.78;;;16.10;58.90;;;;;;4970598;28;20043;-57
2023/04/19 12:23:58;;;;;;;6.88;2.80;;;16.00;60.00;;;;;;4965102;28;20038;-56
2023/04/19 12:26:28;;;;;;;9.02;3.22;;;16.10;60.80;;;;;;4969204;28;20038;-56
2023/04/19 12:28:54;;;;;;;7.45;3.40;;;16.20;62.50;;;;;;4955957;28;20113;-57
2023/04/19 12:31:20;;;;;;;17.02;4.15;;;16.30;63.20;;;;;;4967378;28;20489;-59
2023/04/19 12:33:46;;;;;;;5.43;3.60;;;16.30;63.90;;;;;;4967327;28;20050;-58
2023/04/19 12:36:12;;;;;;;5.07;3.50;;;16.30;64.30;;;;;;4969084;28;20038;-57
2023/04/19 12:38:37;;;;;;;5.65;3.38;;;16.20;62.90;;;;;;4965519;28;20130;-58
2023/04/19 12:41:03;;;;;;;5.10;3.20;;;16.00;63.60;;;;;;4966522;28;20047;-56
2023/04/19 12:43:30;;;;;;;9.93;3.75;;;15.90;63.40;;;;;;4956484;28;20650;-56
2023/04/19 12:45:57;;;;;;;4.85;3.30;;;15.90;65.00;;;;;;4971811;28;20096;-58
2023/04/19 12:48:24;;;;;;;5.28;3.28;;;15.80;63.70;;;;;;4970895;28;20095;-59